• Join FlightAware (Why Join?)
  • Login
  • US Flag 
06:51PM EDT


 

Airport Tracker/Info


-or-


 

Live Flight TrackerFlight Track Log ✈ XFL6 ✈ 22-Apr-2013 ✈ KHPN - KNEW

Flight Track Log - Related Links

Times and Time Zones

All times are in EDT time to prevent confusion due to time zone crossing. See the XFL6 flight status page for this flight to view local times or setup timezone preferences in your user account.

Time Position Orientation Groundspeed Altitude Reporting Facility
EDT Latitude Longitude Course Direction KTS MPH feet Rate Location/Type
06:08PM 41.0333 -73.7000 237° Southwest 206 237 1,800  Level New York TRACON
06:09PM 41.0500 -73.7833 285° West 225 259 3,200 1,740 Climbing New York TRACON
06:10PM 41.0333 -73.8667 255° West 275 316 5,200 1,800 Climbing New York TRACON
06:11PM 41.0000 -73.9667 246° West 287 330 6,800 900 Climbing New York TRACON
06:12PM 40.9667 -74.0667 246° West 279 321 7,100 960 Climbing New York TRACON
06:13PM 40.9000 -74.1000 201° Southwest 262 302 8,800 2,040 Climbing New York TRACON
06:14PM 40.7241 -74.3684 237° Southwest  Level FlightAware Approximate
06:14PM 40.8500 -74.1167 194° South 284 327 11,000  Level New York TRACON
06:15PM 40.8000 -74.2167 237° Southwest 328 377 13,400 2,340 Climbing New York TRACON
06:16PM 40.7500 -74.3167 237° Southwest 362 417 15,700 1,440 Climbing New York TRACON
06:19PM 40.5853 -74.5258 224° Southwest 366 421 18,400 1,260 Climbing New York Center
06:20PM 40.5014 -74.6058 216° Southwest 372 428 20,000 1,620 Climbing New York Center
06:21PM 40.4294 -74.7053 226° Southwest 377 434 21,800 1,740 Climbing New York Center
06:22PM 40.3550 -74.8047 226° Southwest 377 434 23,600 1,740 Climbing New York Center
06:23PM 40.3114 -74.9244 244° Southwest 377 434 25,300 1,800 Climbing New York Center
06:24PM 40.2586 -75.0575 243° Southwest 372 428 27,200 1,680 Climbing New York Center
06:25PM 40.2128 -75.1742 243° Southwest 372 428 28,700 1,440 Climbing New York Center
06:26PM 40.1667 -75.2908 243° Southwest 372 428 30,200 1,440 Climbing New York Center
06:27PM 40.1186 -75.3989 240° Southwest 359 413 31,700 1,320 Climbing New York Center
06:28PM 40.0547 -75.4869 227° Southwest 348 400 32,900 1,080 Climbing New York Center
06:29PM 39.9906 -75.5772 227° Southwest 342 394 33,900 960 Climbing New York Center
06:30PM 39.9286 -75.6625 227° Southwest 336 387 34,800 780 Climbing New York Center
06:31PM 39.8728 -75.7533 231° Southwest 331 381 35,500 420 Climbing New York Center
06:32PM 39.7819 -75.8939 230° Southwest 319 367 36,000 180 Climbing Washington Center
06:33PM 39.7233 -75.9881 231° Southwest 326 375 36,000  Level Washington Center
06:34PM 39.6647 -76.0822 231° Southwest 338 389 36,000  Level Washington Center
06:35PM 39.6017 -76.1786 230° Southwest 349 402 36,000  Level Washington Center
06:36PM 39.5386 -76.2750 230° Southwest 349 402 36,000  Level Washington Center
06:37PM 39.4778 -76.3686 230° Southwest 349 402 36,000  Level Washington Center
06:38PM 39.4167 -76.4647 231° Southwest 349 402 36,000  Level Washington Center
06:39PM 39.3533 -76.5578 229° Southwest 349 402 36,000  Level Washington Center
06:40PM 39.2900 -76.6561 230° Southwest 349 402 36,000  Level Washington Center
06:41PM 39.2289 -76.7517 230° Southwest 349 402 36,000  Level Washington Center
06:42PM 39.1672 -76.8497 231° Southwest 349 402 36,000  Level Washington Center
06:43PM 39.1039 -76.9450 229° Southwest 349 402 36,000  Level Washington Center
06:44PM 39.0400 -77.0428 230° Southwest 349 402 36,000  Level Washington Center
06:45PM 38.9661 -77.1242 221° Southwest 349 402 36,000  Level Washington Center
06:46PM 38.8900 -77.2078 221° Southwest 355 409 36,000  Level Washington Center
06:47PM 38.8139 -77.2914 221° Southwest 360 414 36,000  Level Washington Center
06:48PM 38.7397 -77.3747 221° Southwest 360 414 36,000  Level Washington Center
06:49PM 38.6633 -77.4556 220° Southwest 360 414 36,000  Level Washington Center
06:50PM 38.5911 -77.5467 225° Southwest 360 414 36,000  Level Washington Center
06:51PM 38.5206 -77.6403 226° Southwest 365 420 36,000  Level Washington Center
06:52PM 38.4503 -77.7311 225° Southwest 365 420 36,000  Level Washington Center
06:53PM 38.3778 -77.8244 225° Southwest 365 420 36,000  Level Washington Center
06:54PM 38.3028 -77.9200 225° Southwest 370 426 36,000  Level Washington Center
06:55PM 38.2322 -78.0131 226° Southwest 370 426 36,000  Level Washington Center
06:56PM 38.1617 -78.1031 225° Southwest 370 426 36,000  Level Washington Center
06:57PM 38.0886 -78.1983 226° Southwest 370 426 36,000  Level Washington Center
06:58PM 38.0094 -78.2958 224° Southwest 370 426 36,000  Level Washington Center
06:59PM 37.9383 -78.3881 226° Southwest 370 426 36,000  Level Washington Center
07:00PM 37.8653 -78.4828 226° Southwest 370 426 36,000  Level Washington Center
07:01PM 37.7900 -78.5744 224° Southwest 370 426 36,000  Level Washington Center
07:02PM 37.7211 -78.6608 225° Southwest 376 433 36,000  Level Washington Center
07:03PM 37.6456 -78.7522 224° Southwest 376 433 36,000  Level Washington Center
07:04PM 37.5700 -78.8486 225° Southwest 376 433 36,000  Level Washington Center
07:05PM 37.4944 -78.9397 224° Southwest 381 438 36,000  Level Washington Center
07:06PM 37.4167 -79.0383 225° Southwest 386 444 36,000  Level Washington Center
07:07PM 37.3303 -79.1389 223° Southwest 391 450 36,000  Level Washington Center
07:08PM 37.2544 -79.2344 225° Southwest 391 450 36,000  Level Washington Center
07:09PM 37.1764 -79.3297 224° Southwest 391 450 36,000  Level Washington Center
07:10PM 37.1025 -79.4253 226° Southwest 397 457 36,000  Level Washington Center
07:11PM 37.0264 -79.5203 225° Southwest 397 457 36,000  Level Washington Center
07:12PM 36.9500 -79.6178 226° Southwest 397 457 36,000  Level Washington Center
07:13PM 36.8803 -79.7050 225° Southwest 397 457 36,000  Level Washington Center
07:14PM 36.8039 -79.7994 225° Southwest 397 457 36,000  Level Washington Center
07:17PM 36.6203 -80.0219 224° Southwest 401 461 36,000  Level Atlanta Center
07:18PM 36.5442 -80.1186 226° Southwest 390 449 36,000  Level Atlanta Center
07:19PM 36.4578 -80.2211 224° Southwest 379 436 36,000  Level Atlanta Center
07:20PM 36.3833 -80.3147 225° Southwest 391 450 36,000  Level Atlanta Center
07:21PM 36.3050 -80.4086 224° Southwest 407 468 36,000  Level Atlanta Center
07:22PM 36.2286 -80.5047 225° Southwest 425 489 36,100 300 Climbing Atlanta Center
07:23PM 36.1539 -80.5981 225° Southwest 410 472 36,600 480 Climbing Atlanta Center
07:24PM 36.0792 -80.6886 224° Southwest 381 438 37,100 480 Climbing Atlanta Center
07:25PM 36.0025 -80.7789 224° Southwest 381 438 37,600 420 Climbing Atlanta Center
07:26PM 35.9278 -80.8692 224° Southwest 381 438 38,000 180 Climbing Atlanta Center
07:27PM 35.8608 -80.9511 225° Southwest 381 438 38,000  Level Atlanta Center
07:28PM 35.7819 -81.0464 224° Southwest 392 451 38,000  Level Atlanta Center
07:29PM 35.7008 -81.1414 224° Southwest 392 451 38,000  Level Atlanta Center
07:30PM 35.6153 -81.2314 221° Southwest 405 466 38,000  Level Atlanta Center
07:31PM 35.5278 -81.3339 224° Southwest 411 473 38,000  Level Atlanta Center
07:32PM 35.4508 -81.4408 229° Southwest 413 475 38,000  Level Atlanta Center
07:33PM 35.3714 -81.5325 223° Southwest 403 464 38,000  Level Atlanta Center
07:34PM 35.2919 -81.6267 224° Southwest 397 457 38,000  Level Atlanta Center
07:35PM 35.2225 -81.7100 224° Southwest 392 451 38,000  Level Atlanta Center
07:36PM 35.1408 -81.8036 223° Southwest 398 458 38,000  Level Atlanta Center
07:37PM 35.0631 -81.8919 223° Southwest 393 452 38,000  Level Atlanta Center
07:38PM 34.9961 -81.9928 231° Southwest 393 452 38,000  Level Atlanta Center
07:39PM 34.9331 -82.0981 234° Southwest 393 452 38,000  Level Atlanta Center
07:40PM 34.8700 -82.2033 234° Southwest 385 443 38,000  Level Atlanta Center
07:41PM 34.8067 -82.3033 232° Southwest 385 443 38,000  Level Atlanta Center
07:42PM 34.7433 -82.4083 234° Southwest 390 449 38,000  Level Atlanta Center
07:43PM 34.6781 -82.5106 232° Southwest 390 449 38,000  Level Atlanta Center
07:44PM 34.6064 -82.6306 234° Southwest 390 449 38,000  Level Atlanta Center
07:45PM 34.5408 -82.7350 233° Southwest 390 449 38,000  Level Atlanta Center
07:46PM 34.4750 -82.8419 233° Southwest 395 455 38,000  Level Atlanta Center
07:47PM 34.4114 -82.9486 234° Southwest 395 455 38,000  Level Atlanta Center
07:48PM 34.3433 -83.0525 232° Southwest 390 449 38,000  Level Atlanta Center
07:49PM 34.2775 -83.1589 233° Southwest 390 449 38,000  Level Atlanta Center
07:50PM 34.2133 -83.2650 234° Southwest 390 449 38,000  Level Atlanta Center
07:51PM 34.1514 -83.3711 235° Southwest 395 455 38,000  Level Atlanta Center
07:52PM 34.0872 -83.4769 234° Southwest 395 455 38,000  Level Atlanta Center
07:53PM 34.0292 -83.5700 233° Southwest 389 448 38,000  Level Atlanta Center
07:54PM 33.9647 -83.6731 233° Southwest 389 448 38,000  Level Atlanta Center
07:55PM 33.9006 -83.7811 234° Southwest 389 448 38,000  Level Atlanta Center
07:56PM 33.8358 -83.8864 234° Southwest 395 455 38,000  Level Atlanta Center
07:57PM 33.7714 -83.9914 234° Southwest 395 455 38,000  Level Atlanta Center
07:58PM 33.6983 -84.1061 233° Southwest 395 455 38,000  Level Atlanta Center
07:59PM 33.6333 -84.2158 235° Southwest 395 455 38,000  Level Atlanta Center
08:00PM 33.5622 -84.3206 231° Southwest 401 461 38,000  Level Atlanta Center
08:01PM 33.4972 -84.4300 235° Southwest 406 467 38,000  Level Atlanta Center
08:02PM 33.4300 -84.5367 233° Southwest 406 467 38,000  Level Atlanta Center
08:03PM 33.3628 -84.6458 234° Southwest 406 467 38,000  Level Atlanta Center
08:04PM 33.3039 -84.7422 234° Southwest 406 467 38,000  Level Atlanta Center
08:05PM 33.2342 -84.8483 232° Southwest 406 467 38,000  Level Atlanta Center
08:06PM 33.1647 -84.9594 233° Southwest 406 467 38,000  Level Atlanta Center
08:07PM 33.0969 -85.0653 233° Southwest 411 473 38,000  Level Atlanta Center
08:08PM 33.0314 -85.1711 234° Southwest 411 473 38,000  Level Atlanta Center
08:09PM 32.9678 -85.2842 236° Southwest 411 473 38,000  Level Atlanta Center
08:10PM 32.8936 -85.3872 229° Southwest 416 479 38,000  Level Atlanta Center
08:11PM 32.8233 -85.4997 233° Southwest 421 484 38,000  Level Atlanta Center
08:12PM 32.7489 -85.6072 231° Southwest 421 484 38,000 -180 Level Atlanta Center
08:13PM 32.6808 -85.7169 234° Southwest 421 484 37,700 -660 Descending Atlanta Center
08:14PM 32.6083 -85.8292 233° Southwest 431 496 36,700 -900 Descending Atlanta Center
08:15PM 32.5356 -85.9383 232° Southwest 431 496 35,900 -900 Descending Atlanta Center
08:16PM 32.4544 -86.0597 232° Southwest 441 507 35,000 -720 Descending Atlanta Center
08:17PM 32.3858 -86.1664 233° Southwest 425 489 34,500 -540 Descending Atlanta Center
08:18PM 32.3172 -86.2731 233° Southwest 425 489 34,000 -300 Descending Atlanta Center
08:19PM 32.2400 -86.3839 231° Southwest 425 489 34,000  Level Atlanta Center
08:20PM 32.1858 -86.4831 237° Southwest 425 489 34,000  Level Atlanta Center
08:21PM 32.1147 -86.5939 233° Southwest 425 489 34,000  Level Atlanta Center
08:22PM 32.0414 -86.7047 232° Southwest 430 495 34,000  Level Atlanta Center
08:23PM 31.9533 -86.8219 228° Southwest 435 501 34,000  Level Atlanta Center
08:24PM 31.8797 -86.9322 232° Southwest 435 501 34,000  Level Atlanta Center
08:26PM 31.7317 -87.1519 232° Southwest 425 489 34,000  Level Houston Center
08:27PM 31.6589 -87.2597 232° Southwest 423 487 34,000  Level Houston Center
08:28PM 31.5861 -87.3681 232° Southwest 423 487 34,000  Level Houston Center
08:29PM 31.4983 -87.4969 231° Southwest 421 484 34,000  Level Houston Center
08:30PM 31.4261 -87.6042 232° Southwest 421 484 34,000  Level Houston Center
08:31PM 31.3536 -87.7128 232° Southwest 422 486 34,000  Level Houston Center
08:32PM 31.2797 -87.8194 231° Southwest 422 486 34,000  Level Houston Center
08:33PM 31.2053 -87.9289 232° Southwest 426 490 34,000  Level Houston Center
08:34PM 31.1289 -88.0372 231° Southwest 430 495 34,000  Level Houston Center
08:35PM 31.0558 -88.1436 231° Southwest 424 488 34,000  Level Houston Center
08:36PM 30.9656 -88.2736 231° Southwest 428 493 34,000  Level Houston Center
08:37PM 30.8917 -88.3819 232° Southwest 428 493 34,000 -60 Level Houston Center
08:38PM 30.8158 -88.4889 230° Southwest 429 494 33,900 -840 Descending Houston Center
08:39PM 30.7403 -88.5972 231° Southwest 432 497 32,300 -2,160 Descending Houston Center
08:40PM 30.6569 -88.7161 231° Southwest 437 503 29,500 -2,640 Descending Houston Center
08:41PM 30.5822 -88.8242 231° Southwest 431 496 26,900 -2,520 Descending Houston Center
08:42PM 30.5078 -88.9289 230° Southwest 423 487 24,300 -2,760 Descending Houston Center
08:43PM 30.4272 -89.0453 231° Southwest 414 476 21,300 -2,760 Descending Houston Center
08:44PM 30.3786 -89.1531 242° Southwest 383 441 18,700 -2,400 Descending Houston Center
08:45PM 30.3372 -89.2628 246° West 372 428 16,400 -2,100 Descending Houston Center
08:46PM 30.2972 -89.3692 246° West 353 406 14,600 -1,860 Descending Houston Center
08:47PM 30.2728 -89.4403 248° West 344 396 13,400 -1,560 Descending Houston Center
08:47PM 30.2597 -89.4711 244° Southwest 350 403 12,900 -1,560 Descending Houston Center
08:48PM 30.2367 -89.5358 248° West 349 402 12,000 -1,380 Descending Houston Center
08:48PM 30.2236 -89.5744 249° West 346 398 11,500 -900 Descending Houston Center
08:49PM 30.2131 -89.6406 260° West 338 389 11,100 -900 Descending Houston Center
08:49PM 30.2042 -89.6783 255° West 330 380 10,600 -1,740 Descending Houston Center
08:50PM 30.1933 -89.7353 258° West 262 302 9,200 -2,340 Descending Houston Center
08:50PM 30.1878 -89.7625 257° West 273 314 8,200 -3,060 Descending Houston Center
08:51PM 30.1819 -89.8294 264° West 254 292 5,800 -3,000 Descending Houston Center
08:51PM 30.1797 -89.8461 261° West 260 299 5,200 -2,580 Descending Houston Center
08:52PM 30.1783 -89.9067 268° West 259 298 3,500 -2,520 Descending Houston Center
08:53PM 30.1783 -89.9444 270° West 257 296 2,600 -1,380 Descending Houston Center
08:53PM 30.1661 -89.9842 250° West 226 260 2,000 -1,020 Descending Houston Center
08:54PM 30.1572 -90.0086 247° West 231 266 1,600 -540 Descending Houston Center
08:54PM 30.1322 -90.0336 221° Southwest 145 167 1,400 -420 Descending Houston Center
08:55PM 30.1222 -90.0328 176° South 184 212 1,200 -660 Descending Houston Center
08:55PM 30.0925 -90.0306 176° South 116 133 700 -660 Descending Houston Center
08:56PM 30.0611 -90.0319 182° South 127 146 200 -480 Descending Houston Center
08:57PM 30.0475 -90.0308 176° South 137 158 100 -240 Descending Houston Center